Terminal Aerodrome Forecast
Issued by NWS Pendleton, OR

Home | Current Version | Previous Version | Text Only | Print | Product List | Glossary On
Versions: 1 2 3 4 5 6 7 8 9 10 11 12 13 14
000
FTUS46 KPDT 301727
TAFPDT
TAF
KPDT 301727Z 3018/3118 22010KT P6SM SCT060 BKN150
     FM302000 26012KT P6SM SCT060 BKN150
     FM310600 15005KT P6SM FEW090 BKN150
     FM311700 30005KT P6SM SCT100 BKN150=

USA.gov is the U.S. government's official web portal to all federal, state and local government web resources and services.